MMZC/ZCL METAR and TAF weather

Enter ICAO airport designator
Station Type Date Time Source
MMZC METAR 2019/08/25 19:40 UTC NOAA

MMZC 251940Z 20006KT 10SM BKN030 24/14 A3024 RMK 8/400


Station Type Date Time Source
MMZC Decoded METAR 2019/08/25 19:40 UTC NOAA

Station name not available
Aug 25, 2019 - 03:40 PM EDT / 2019.08.25 1940 UTC
Wind: from the SSW (200 degrees) at 7 MPH (6 KT):0
Visibility: 10 mile(s):0
Sky conditions: mostly cloudy
Temperature: 75 F (24 C)
Dew Point: 57 F (14 C)
Relative Humidity: 53%
Pressure (altimeter): 30.24 in. Hg (1024 hPa)
ob: MMZC 251940Z 20006KT 10SM BKN030 24/14 A3024 RMK 8/400
cycle: 19

Station Type Date Time Source
MMZC TAF 2019/08/25 18:33 UTC NOAA

TAF TAF MMZC 251707Z 2518/2624 04006KT P6SM BKN030 BKN200 TX24/2521Z TN16/2613Z
FM252100 02015KT P6SM BKN030CB BKN100
TEMPO 2522/2602 5SM TSRA
FM260300 09006KT P6SM SCT030CB BKN100 PROB40 2603/2607 6SM -TSRA
FM260900 00000KT P6SM SCT030 BKN100
FM261800 35005KT P6SM BKN030
FM262100 07012KT P6SM BKN030CB BKN100 PROB40 2621/2624 4SM TSRA

Example: see airport list